sensor_id;sensor_type;location;lat;lon;timestamp;P1;durP1;ratioP1;P2;durP2;ratioP2
74612;SDS011;63119;51.788;8.824;2024-03-17T00:01:03;10.47;;;4.37;;
74612;SDS011;63119;51.788;8.824;2024-03-17T00:03:29;10.38;;;4.75;;
74612;SDS011;63119;51.788;8.824;2024-03-17T00:05:56;10.55;;;4.97;;
74612;SDS011;63119;51.788;8.824;2024-03-17T00:08:22;10.45;;;4.30;;
74612;SDS011;63119;51.788;8.824;2024-03-17T00:10:49;9.77;;;4.10;;
74612;SDS011;63119;51.788;8.824;2024-03-17T00:13:15;7.50;;;3.60;;
74612;SDS011;63119;51.788;8.824;2024-03-17T00:15:41;7.45;;;3.78;;
74612;SDS011;63119;51.788;8.824;2024-03-17T00:18:07;9.27;;;3.60;;
74612;SDS011;63119;51.788;8.824;2024-03-17T00:20:36;8.18;;;3.63;;
74612;SDS011;63119;51.788;8.824;2024-03-17T00:23:01;7.38;;;3.80;;
74612;SDS011;63119;51.788;8.824;2024-03-17T00:25:27;8.40;;;3.80;;
74612;SDS011;63119;51.788;8.824;2024-03-17T00:27:52;6.93;;;3.45;;
74612;SDS011;63119;51.788;8.824;2024-03-17T00:30:20;8.52;;;3.53;;
74612;SDS011;63119;51.788;8.824;2024-03-17T00:32:46;11.68;;;3.67;;
74612;SDS011;63119;51.788;8.824;2024-03-17T00:35:11;9.00;;;3.70;;
74612;SDS011;63119;51.788;8.824;2024-03-17T00:37:39;9.75;;;4.03;;
74612;SDS011;63119;51.788;8.824;2024-03-17T00:40:04;4.95;;;3.13;;
74612;SDS011;63119;51.788;8.824;2024-03-17T00:42:31;7.75;;;3.53;;
74612;SDS011;63119;51.788;8.824;2024-03-17T00:44:57;9.30;;;3.97;;
74612;SDS011;63119;51.788;8.824;2024-03-17T00:47:24;11.52;;;4.38;;
74612;SDS011;63119;51.788;8.824;2024-03-17T00:49:50;9.53;;;3.80;;
74612;SDS011;63119;51.788;8.824;2024-03-17T00:52:15;7.93;;;3.90;;
74612;SDS011;63119;51.788;8.824;2024-03-17T00:54:41;8.45;;;4.07;;
74612;SDS011;63119;51.788;8.824;2024-03-17T00:57:07;9.75;;;4.22;;
74612;SDS011;63119;51.788;8.824;2024-03-17T00:59:32;10.30;;;3.90;;
74612;SDS011;63119;51.788;8.824;2024-03-17T01:01:58;9.90;;;4.03;;
74612;SDS011;63119;51.788;8.824;2024-03-17T01:04:23;7.10;;;3.80;;
74612;SDS011;63119;51.788;8.824;2024-03-17T01:06:48;6.87;;;3.63;;
74612;SDS011;63119;51.788;8.824;2024-03-17T01:09:13;8.73;;;3.80;;
74612;SDS011;63119;51.788;8.824;2024-03-17T01:11:39;11.30;;;4.00;;
74612;SDS011;63119;51.788;8.824;2024-03-17T01:14:05;10.40;;;4.25;;
74612;SDS011;63119;51.788;8.824;2024-03-17T01:16:30;7.33;;;3.23;;
74612;SDS011;63119;51.788;8.824;2024-03-17T01:18:55;6.73;;;3.60;;
74612;SDS011;63119;51.788;8.824;2024-03-17T01:21:20;9.07;;;3.73;;
74612;SDS011;63119;51.788;8.824;2024-03-17T01:23:49;8.48;;;4.18;;
74612;SDS011;63119;51.788;8.824;2024-03-17T01:28:40;6.60;;;2.93;;
74612;SDS011;63119;51.788;8.824;2024-03-17T01:31:06;4.17;;;2.33;;
74612;SDS011;63119;51.788;8.824;2024-03-17T01:33:31;7.18;;;2.85;;
74612;SDS011;63119;51.788;8.824;2024-03-17T01:35:56;7.37;;;2.83;;
74612;SDS011;63119;51.788;8.824;2024-03-17T01:38:22;5.53;;;2.77;;
74612;SDS011;63119;51.788;8.824;2024-03-17T01:40:47;7.07;;;2.80;;
74612;SDS011;63119;51.788;8.824;2024-03-17T01:43:12;9.57;;;2.97;;
74612;SDS011;63119;51.788;8.824;2024-03-17T01:45:37;4.50;;;2.73;;
74612;SDS011;63119;51.788;8.824;2024-03-17T01:48:03;7.90;;;2.40;;
74612;SDS011;63119;51.788;8.824;2024-03-17T01:50:35;8.65;;;2.63;;
74612;SDS011;63119;51.788;8.824;2024-03-17T01:53:02;6.43;;;2.90;;
74612;SDS011;63119;51.788;8.824;2024-03-17T01:57:56;3.70;;;2.28;;
74612;SDS011;63119;51.788;8.824;2024-03-17T02:00:21;6.00;;;2.97;;
74612;SDS011;63119;51.788;8.824;2024-03-17T02:02:46;5.20;;;2.73;;
74612;SDS011;63119;51.788;8.824;2024-03-17T02:05:12;4.75;;;2.38;;
74612;SDS011;63119;51.788;8.824;2024-03-17T02:07:37;5.27;;;2.63;;
74612;SDS011;63119;51.788;8.824;2024-03-17T02:10:02;5.37;;;2.60;;
74612;SDS011;63119;51.788;8.824;2024-03-17T02:12:28;6.80;;;2.65;;
74612;SDS011;63119;51.788;8.824;2024-03-17T02:14:56;5.72;;;2.53;;
74612;SDS011;63119;51.788;8.824;2024-03-17T02:17:22;4.32;;;2.45;;
74612;SDS011;63119;51.788;8.824;2024-03-17T02:19:47;9.00;;;2.97;;
74612;SDS011;63119;51.788;8.824;2024-03-17T02:22:15;5.97;;;2.53;;
74612;SDS011;63119;51.788;8.824;2024-03-17T02:24:42;5.03;;;2.72;;
74612;SDS011;63119;51.788;8.824;2024-03-17T02:27:07;5.13;;;2.70;;
74612;SDS011;63119;51.788;8.824;2024-03-17T02:29:32;7.60;;;3.10;;
74612;SDS011;63119;51.788;8.824;2024-03-17T02:31:58;5.20;;;2.87;;
74612;SDS011;63119;51.788;8.824;2024-03-17T02:34:23;9.90;;;3.70;;
74612;SDS011;63119;51.788;8.824;2024-03-17T02:36:48;7.73;;;3.00;;
74612;SDS011;63119;51.788;8.824;2024-03-17T02:39:14;6.93;;;2.77;;
74612;SDS011;63119;51.788;8.824;2024-03-17T02:41:58;7.53;;;2.97;;
74612;SDS011;63119;51.788;8.824;2024-03-17T02:44:23;9.27;;;3.20;;
74612;SDS011;63119;51.788;8.824;2024-03-17T02:46:48;6.80;;;2.30;;
74612;SDS011;63119;51.788;8.824;2024-03-17T02:49:13;5.10;;;2.90;;
74612;SDS011;63119;51.788;8.824;2024-03-17T02:51:39;6.50;;;3.20;;
74612;SDS011;63119;51.788;8.824;2024-03-17T02:54:04;6.82;;;2.83;;
74612;SDS011;63119;51.788;8.824;2024-03-17T02:56:30;5.72;;;2.80;;
74612;SDS011;63119;51.788;8.824;2024-03-17T02:58:56;5.15;;;2.83;;
74612;SDS011;63119;51.788;8.824;2024-03-17T03:01:21;11.47;;;2.80;;
74612;SDS011;63119;51.788;8.824;2024-03-17T03:03:46;6.70;;;2.70;;
74612;SDS011;63119;51.788;8.824;2024-03-17T03:06:12;8.60;;;3.33;;
74612;SDS011;63119;51.788;8.824;2024-03-17T03:08:39;5.30;;;3.03;;
74612;SDS011;63119;51.788;8.824;2024-03-17T03:11:06;7.78;;;3.10;;
74612;SDS011;63119;51.788;8.824;2024-03-17T03:13:38;8.15;;;3.15;;
74612;SDS011;63119;51.788;8.824;2024-03-17T03:16:08;8.38;;;3.10;;
74612;SDS011;63119;51.788;8.824;2024-03-17T03:18:36;7.70;;;3.22;;
74612;SDS011;63119;51.788;8.824;2024-03-17T03:21:01;6.75;;;3.00;;
74612;SDS011;63119;51.788;8.824;2024-03-17T03:23:27;5.35;;;2.65;;
74612;SDS011;63119;51.788;8.824;2024-03-17T03:25:55;7.20;;;2.80;;
74612;SDS011;63119;51.788;8.824;2024-03-17T03:28:24;12.60;;;3.72;;
74612;SDS011;63119;51.788;8.824;2024-03-17T03:30:50;5.35;;;2.65;;
74612;SDS011;63119;51.788;8.824;2024-03-17T03:33:16;5.80;;;2.65;;
74612;SDS011;63119;51.788;8.824;2024-03-17T03:35:43;6.00;;;3.08;;
74612;SDS011;63119;51.788;8.824;2024-03-17T03:38:08;8.45;;;2.95;;
74612;SDS011;63119;51.788;8.824;2024-03-17T03:40:33;7.33;;;3.23;;
74612;SDS011;63119;51.788;8.824;2024-03-17T03:42:59;6.33;;;3.00;;
74612;SDS011;63119;51.788;8.824;2024-03-17T03:45:24;8.33;;;3.10;;
74612;SDS011;63119;51.788;8.824;2024-03-17T03:47:50;6.90;;;2.72;;
74612;SDS011;63119;51.788;8.824;2024-03-17T03:50:17;6.40;;;2.78;;
74612;SDS011;63119;51.788;8.824;2024-03-17T03:52:44;8.60;;;2.88;;
74612;SDS011;63119;51.788;8.824;2024-03-17T03:55:10;5.78;;;2.85;;
74612;SDS011;63119;51.788;8.824;2024-03-17T03:57:36;9.70;;;3.08;;
74612;SDS011;63119;51.788;8.824;2024-03-17T04:00:05;6.80;;;2.80;;
74612;SDS011;63119;51.788;8.824;2024-03-17T04:02:37;6.68;;;2.70;;
74612;SDS011;63119;51.788;8.824;2024-03-17T04:05:06;5.18;;;2.40;;
74612;SDS011;63119;51.788;8.824;2024-03-17T04:07:32;5.97;;;2.47;;
74612;SDS011;63119;51.788;8.824;2024-03-17T04:09:57;5.00;;;2.63;;
74612;SDS011;63119;51.788;8.824;2024-03-17T04:12:23;6.67;;;3.13;;
74612;SDS011;63119;51.788;8.824;2024-03-17T04:14:49;8.93;;;2.92;;
74612;SDS011;63119;51.788;8.824;2024-03-17T04:17:18;5.18;;;2.45;;
74612;SDS011;63119;51.788;8.824;2024-03-17T04:22:19;10.07;;;2.60;;
74612;SDS011;63119;51.788;8.824;2024-03-17T04:24:47;5.90;;;2.47;;
74612;SDS011;63119;51.788;8.824;2024-03-17T04:27:18;7.47;;;2.95;;
74612;SDS011;63119;51.788;8.824;2024-03-17T04:29:43;13.07;;;3.60;;
74612;SDS011;63119;51.788;8.824;2024-03-17T04:32:12;7.07;;;2.83;;
74612;SDS011;63119;51.788;8.824;2024-03-17T04:34:38;6.50;;;3.30;;
74612;SDS011;63119;51.788;8.824;2024-03-17T04:37:03;8.40;;;2.97;;
74612;SDS011;63119;51.788;8.824;2024-03-17T04:39:28;10.13;;;3.17;;
74612;SDS011;63119;51.788;8.824;2024-03-17T04:41:53;6.30;;;3.33;;
74612;SDS011;63119;51.788;8.824;2024-03-17T04:44:19;7.40;;;3.30;;
74612;SDS011;63119;51.788;8.824;2024-03-17T04:46:44;8.30;;;2.90;;
74612;SDS011;63119;51.788;8.824;2024-03-17T04:49:09;6.50;;;3.20;;
74612;SDS011;63119;51.788;8.824;2024-03-17T04:51:34;7.93;;;3.67;;
74612;SDS011;63119;51.788;8.824;2024-03-17T04:54:00;7.63;;;3.23;;
74612;SDS011;63119;51.788;8.824;2024-03-17T04:56:28;10.05;;;2.72;;
74612;SDS011;63119;51.788;8.824;2024-03-17T04:58:54;5.90;;;2.50;;
74612;SDS011;63119;51.788;8.824;2024-03-17T05:01:19;5.13;;;2.80;;
74612;SDS011;63119;51.788;8.824;2024-03-17T05:03:44;7.00;;;3.08;;
74612;SDS011;63119;51.788;8.824;2024-03-17T05:06:10;10.43;;;3.13;;
74612;SDS011;63119;51.788;8.824;2024-03-17T05:08:35;8.70;;;3.30;;
74612;SDS011;63119;51.788;8.824;2024-03-17T05:11:01;8.00;;;3.17;;
74612;SDS011;63119;51.788;8.824;2024-03-17T05:13:31;6.65;;;2.85;;
74612;SDS011;63119;51.788;8.824;2024-03-17T05:15:57;6.25;;;3.13;;
74612;SDS011;63119;51.788;8.824;2024-03-17T05:18:24;8.85;;;2.90;;
74612;SDS011;63119;51.788;8.824;2024-03-17T05:21:00;6.20;;;2.60;;
74612;SDS011;63119;51.788;8.824;2024-03-17T05:23:30;4.78;;;2.95;;
74612;SDS011;63119;51.788;8.824;2024-03-17T05:25:57;7.00;;;2.97;;
74612;SDS011;63119;51.788;8.824;2024-03-17T05:28:24;7.43;;;3.22;;
74612;SDS011;63119;51.788;8.824;2024-03-17T05:30:50;9.93;;;2.92;;
74612;SDS011;63119;51.788;8.824;2024-03-17T05:33:16;8.30;;;3.13;;
74612;SDS011;63119;51.788;8.824;2024-03-17T05:35:48;8.48;;;2.80;;
74612;SDS011;63119;51.788;8.824;2024-03-17T05:38:20;8.07;;;3.05;;
74612;SDS011;63119;51.788;8.824;2024-03-17T05:40:56;11.30;;;3.28;;
74612;SDS011;63119;51.788;8.824;2024-03-17T05:43:23;7.78;;;3.70;;
74612;SDS011;63119;51.788;8.824;2024-03-17T05:45:50;12.45;;;6.25;;
74612;SDS011;63119;51.788;8.824;2024-03-17T05:48:19;31.60;;;14.18;;
74612;SDS011;63119;51.788;8.824;2024-03-17T05:50:44;18.52;;;8.75;;
74612;SDS011;63119;51.788;8.824;2024-03-17T05:53:10;20.65;;;8.20;;
74612;SDS011;63119;51.788;8.824;2024-03-17T05:55:35;14.05;;;6.55;;
74612;SDS011;63119;51.788;8.824;2024-03-17T05:58:01;9.45;;;5.32;;
74612;SDS011;63119;51.788;8.824;2024-03-17T06:00:27;8.52;;;4.22;;
74612;SDS011;63119;51.788;8.824;2024-03-17T06:02:52;9.37;;;3.80;;
74612;SDS011;63119;51.788;8.824;2024-03-17T06:05:18;7.93;;;3.37;;
74612;SDS011;63119;51.788;8.824;2024-03-17T06:07:43;12.20;;;7.10;;
74612;SDS011;63119;51.788;8.824;2024-03-17T06:10:08;10.47;;;6.97;;
74612;SDS011;63119;51.788;8.824;2024-03-17T06:12:34;11.82;;;7.43;;
74612;SDS011;63119;51.788;8.824;2024-03-17T06:14:59;12.13;;;6.77;;
74612;SDS011;63119;51.788;8.824;2024-03-17T06:17:24;15.13;;;6.80;;
74612;SDS011;63119;51.788;8.824;2024-03-17T06:19:51;9.07;;;5.03;;
74612;SDS011;63119;51.788;8.824;2024-03-17T06:22:16;7.82;;;3.78;;
74612;SDS011;63119;51.788;8.824;2024-03-17T06:24:42;11.03;;;4.77;;
74612;SDS011;63119;51.788;8.824;2024-03-17T06:27:07;8.07;;;3.10;;
74612;SDS011;63119;51.788;8.824;2024-03-17T06:29:32;8.17;;;3.03;;
74612;SDS011;63119;51.788;8.824;2024-03-17T06:31:58;5.70;;;2.60;;
74612;SDS011;63119;51.788;8.824;2024-03-17T06:34:23;7.37;;;2.83;;
74612;SDS011;63119;51.788;8.824;2024-03-17T06:36:48;4.00;;;2.50;;
74612;SDS011;63119;51.788;8.824;2024-03-17T06:39:13;9.80;;;3.40;;
74612;SDS011;63119;51.788;8.824;2024-03-17T06:41:40;6.32;;;3.60;;
74612;SDS011;63119;51.788;8.824;2024-03-17T06:44:06;7.65;;;3.80;;
74612;SDS011;63119;51.788;8.824;2024-03-17T06:46:31;7.27;;;3.90;;
74612;SDS011;63119;51.788;8.824;2024-03-17T06:48:57;6.53;;;3.73;;
74612;SDS011;63119;51.788;8.824;2024-03-17T06:51:24;10.82;;;3.95;;
74612;SDS011;63119;51.788;8.824;2024-03-17T06:53:50;6.50;;;3.42;;
74612;SDS011;63119;51.788;8.824;2024-03-17T06:56:15;7.87;;;3.70;;
74612;SDS011;63119;51.788;8.824;2024-03-17T06:58:40;7.20;;;3.60;;
74612;SDS011;63119;51.788;8.824;2024-03-17T07:01:05;6.07;;;4.17;;
74612;SDS011;63119;51.788;8.824;2024-03-17T07:03:31;9.93;;;4.10;;
74612;SDS011;63119;51.788;8.824;2024-03-17T07:05:58;6.03;;;3.75;;
74612;SDS011;63119;51.788;8.824;2024-03-17T07:08:27;7.93;;;3.72;;
74612;SDS011;63119;51.788;8.824;2024-03-17T07:11:05;8.20;;;3.78;;
74612;SDS011;63119;51.788;8.824;2024-03-17T07:13:35;12.32;;;4.07;;
74612;SDS011;63119;51.788;8.824;2024-03-17T07:16:03;9.15;;;3.88;;
74612;SDS011;63119;51.788;8.824;2024-03-17T07:18:31;9.45;;;4.10;;
74612;SDS011;63119;51.788;8.824;2024-03-17T07:20:57;9.18;;;4.80;;
74612;SDS011;63119;51.788;8.824;2024-03-17T07:23:23;10.48;;;4.63;;
74612;SDS011;63119;51.788;8.824;2024-03-17T07:25:55;8.93;;;4.68;;
74612;SDS011;63119;51.788;8.824;2024-03-17T07:28:21;9.85;;;4.00;;
74612;SDS011;63119;51.788;8.824;2024-03-17T07:30:48;10.77;;;4.78;;
74612;SDS011;63119;51.788;8.824;2024-03-17T07:33:15;12.63;;;5.35;;
74612;SDS011;63119;51.788;8.824;2024-03-17T07:35:47;13.40;;;5.23;;
74612;SDS011;63119;51.788;8.824;2024-03-17T07:38:22;14.13;;;5.15;;
74612;SDS011;63119;51.788;8.824;2024-03-17T07:40:58;12.10;;;5.20;;
74612;SDS011;63119;51.788;8.824;2024-03-17T07:43:23;14.05;;;6.10;;
74612;SDS011;63119;51.788;8.824;2024-03-17T07:48:31;14.35;;;5.60;;
74612;SDS011;63119;51.788;8.824;2024-03-17T07:51:03;13.73;;;5.70;;
74612;SDS011;63119;51.788;8.824;2024-03-17T07:53:31;12.45;;;6.13;;
74612;SDS011;63119;51.788;8.824;2024-03-17T07:56:00;14.27;;;6.32;;
74612;SDS011;63119;51.788;8.824;2024-03-17T07:58:31;14.13;;;7.00;;
74612;SDS011;63119;51.788;8.824;2024-03-17T08:01:01;14.05;;;5.97;;
74612;SDS011;63119;51.788;8.824;2024-03-17T08:03:38;15.40;;;7.30;;
74612;SDS011;63119;51.788;8.824;2024-03-17T08:06:05;13.80;;;6.13;;
74612;SDS011;63119;51.788;8.824;2024-03-17T08:08:31;13.35;;;5.93;;
74612;SDS011;63119;51.788;8.824;2024-03-17T08:10:57;12.65;;;5.95;;
74612;SDS011;63119;51.788;8.824;2024-03-17T08:13:23;15.23;;;6.55;;
74612;SDS011;63119;51.788;8.824;2024-03-17T08:15:56;12.40;;;5.80;;
74612;SDS011;63119;51.788;8.824;2024-03-17T08:18:23;11.18;;;6.03;;
74612;SDS011;63119;51.788;8.824;2024-03-17T08:20:48;16.52;;;8.10;;
74612;SDS011;63119;51.788;8.824;2024-03-17T08:23:13;14.20;;;6.20;;
74612;SDS011;63119;51.788;8.824;2024-03-17T08:25:39;13.00;;;5.60;;
74612;SDS011;63119;51.788;8.824;2024-03-17T08:28:05;12.60;;;6.22;;
74612;SDS011;63119;51.788;8.824;2024-03-17T08:30:30;13.73;;;6.47;;
74612;SDS011;63119;51.788;8.824;2024-03-17T08:32:56;11.52;;;5.57;;
74612;SDS011;63119;51.788;8.824;2024-03-17T08:35:22;13.25;;;5.82;;
74612;SDS011;63119;51.788;8.824;2024-03-17T08:37:47;14.88;;;6.15;;
74612;SDS011;63119;51.788;8.824;2024-03-17T08:40:13;14.10;;;6.28;;
74612;SDS011;63119;51.788;8.824;2024-03-17T08:42:38;11.82;;;5.47;;
74612;SDS011;63119;51.788;8.824;2024-03-17T08:45:04;10.88;;;5.60;;
74612;SDS011;63119;51.788;8.824;2024-03-17T08:47:30;13.60;;;5.78;;
74612;SDS011;63119;51.788;8.824;2024-03-17T08:49:55;11.23;;;5.57;;
74612;SDS011;63119;51.788;8.824;2024-03-17T08:52:20;12.63;;;5.77;;
74612;SDS011;63119;51.788;8.824;2024-03-17T08:54:46;10.18;;;5.68;;
74612;SDS011;63119;51.788;8.824;2024-03-17T08:57:12;10.05;;;5.05;;
74612;SDS011;63119;51.788;8.824;2024-03-17T08:59:37;11.93;;;6.22;;
74612;SDS011;63119;51.788;8.824;2024-03-17T09:02:02;11.90;;;5.50;;
74612;SDS011;63119;51.788;8.824;2024-03-17T09:04:28;11.10;;;6.00;;
74612;SDS011;63119;51.788;8.824;2024-03-17T09:06:54;13.02;;;6.47;;
74612;SDS011;63119;51.788;8.824;2024-03-17T09:09:21;12.82;;;6.53;;
74612;SDS011;63119;51.788;8.824;2024-03-17T09:11:46;11.10;;;6.33;;
74612;SDS011;63119;51.788;8.824;2024-03-17T09:14:11;11.70;;;6.07;;
74612;SDS011;63119;51.788;8.824;2024-03-17T09:16:37;11.15;;;6.07;;
74612;SDS011;63119;51.788;8.824;2024-03-17T09:19:02;13.83;;;6.67;;
74612;SDS011;63119;51.788;8.824;2024-03-17T09:21:27;12.37;;;5.77;;
74612;SDS011;63119;51.788;8.824;2024-03-17T09:23:53;10.30;;;6.20;;
74612;SDS011;63119;51.788;8.824;2024-03-17T09:26:18;11.00;;;6.57;;
74612;SDS011;63119;51.788;8.824;2024-03-17T09:28:43;10.43;;;6.17;;
74612;SDS011;63119;51.788;8.824;2024-03-17T09:31:09;9.07;;;5.50;;
74612;SDS011;63119;51.788;8.824;2024-03-17T09:33:36;10.85;;;5.60;;
74612;SDS011;63119;51.788;8.824;2024-03-17T09:36:04;12.35;;;6.43;;
74612;SDS011;63119;51.788;8.824;2024-03-17T09:38:31;12.85;;;6.50;;
74612;SDS011;63119;51.788;8.824;2024-03-17T09:40:57;10.80;;;5.95;;
74612;SDS011;63119;51.788;8.824;2024-03-17T09:43:23;11.75;;;5.95;;
74612;SDS011;63119;51.788;8.824;2024-03-17T09:45:50;10.60;;;6.03;;
74612;SDS011;63119;51.788;8.824;2024-03-17T09:48:20;10.50;;;6.45;;
74612;SDS011;63119;51.788;8.824;2024-03-17T09:50:51;14.55;;;6.72;;
74612;SDS011;63119;51.788;8.824;2024-03-17T09:53:31;10.15;;;6.00;;
74612;SDS011;63119;51.788;8.824;2024-03-17T09:56:03;9.25;;;5.68;;
74612;SDS011;63119;51.788;8.824;2024-03-17T09:58:35;10.18;;;6.15;;
74612;SDS011;63119;51.788;8.824;2024-03-17T10:01:00;9.53;;;5.63;;
74612;SDS011;63119;51.788;8.824;2024-03-17T10:03:45;9.25;;;5.95;;
74612;SDS011;63119;51.788;8.824;2024-03-17T10:06:20;10.55;;;5.88;;
74612;SDS011;63119;51.788;8.824;2024-03-17T10:08:49;10.57;;;5.80;;
74612;SDS011;63119;51.788;8.824;2024-03-17T10:11:27;12.93;;;6.47;;
74612;SDS011;63119;51.788;8.824;2024-03-17T10:14:02;12.00;;;6.35;;
74612;SDS011;63119;51.788;8.824;2024-03-17T10:16:29;11.93;;;5.93;;
74612;SDS011;63119;51.788;8.824;2024-03-17T10:19:06;10.05;;;5.88;;
74612;SDS011;63119;51.788;8.824;2024-03-17T10:21:32;13.18;;;6.50;;
74612;SDS011;63119;51.788;8.824;2024-03-17T10:24:04;12.93;;;6.93;;
74612;SDS011;63119;51.788;8.824;2024-03-17T10:26:46;13.60;;;6.45;;
74612;SDS011;63119;51.788;8.824;2024-03-17T10:29:29;11.88;;;6.53;;
74612;SDS011;63119;51.788;8.824;2024-03-17T10:34:29;12.60;;;6.85;;
74612;SDS011;63119;51.788;8.824;2024-03-17T10:37:08;14.27;;;6.85;;
74612;SDS011;63119;51.788;8.824;2024-03-17T10:39:36;10.38;;;5.97;;
74612;SDS011;63119;51.788;8.824;2024-03-17T10:42:02;12.60;;;6.88;;
74612;SDS011;63119;51.788;8.824;2024-03-17T10:44:29;14.05;;;6.65;;
74612;SDS011;63119;51.788;8.824;2024-03-17T10:46:56;11.85;;;6.78;;
74612;SDS011;63119;51.788;8.824;2024-03-17T10:49:34;12.50;;;7.40;;
74612;SDS011;63119;51.788;8.824;2024-03-17T10:52:01;11.65;;;6.22;;
74612;SDS011;63119;51.788;8.824;2024-03-17T10:54:29;13.43;;;7.38;;
74612;SDS011;63119;51.788;8.824;2024-03-17T10:56:56;12.07;;;6.50;;
74612;SDS011;63119;51.788;8.824;2024-03-17T10:59:35;10.55;;;6.65;;
74612;SDS011;63119;51.788;8.824;2024-03-17T11:02:10;10.95;;;6.22;;
74612;SDS011;63119;51.788;8.824;2024-03-17T11:04:51;12.63;;;6.15;;
74612;SDS011;63119;51.788;8.824;2024-03-17T11:07:18;10.45;;;5.95;;
74612;SDS011;63119;51.788;8.824;2024-03-17T11:09:44;13.10;;;6.65;;
74612;SDS011;63119;51.788;8.824;2024-03-17T11:17:48;11.15;;;6.00;;
74612;SDS011;63119;51.788;8.824;2024-03-17T11:20:18;10.25;;;6.40;;
74612;SDS011;63119;51.788;8.824;2024-03-17T11:22:50;10.57;;;5.68;;
74612;SDS011;63119;51.788;8.824;2024-03-17T11:28:08;12.65;;;6.35;;
74612;SDS011;63119;51.788;8.824;2024-03-17T11:38:52;11.52;;;5.93;;
74612;SDS011;63119;51.788;8.824;2024-03-17T11:41:48;10.52;;;6.28;;
74612;SDS011;63119;51.788;8.824;2024-03-17T11:46:40;10.20;;;5.70;;
74612;SDS011;63119;51.788;8.824;2024-03-17T11:49:10;8.63;;;5.50;;
74612;SDS011;63119;51.788;8.824;2024-03-17T11:51:44;9.45;;;6.03;;
74612;SDS011;63119;51.788;8.824;2024-03-17T11:54:13;9.15;;;5.25;;
74612;SDS011;63119;51.788;8.824;2024-03-17T11:56:43;11.45;;;5.68;;
74612;SDS011;63119;51.788;8.824;2024-03-17T11:59:09;10.65;;;5.60;;
74612;SDS011;63119;51.788;8.824;2024-03-17T12:01:36;13.35;;;6.18;;
74612;SDS011;63119;51.788;8.824;2024-03-17T12:04:01;10.38;;;6.03;;
74612;SDS011;63119;51.788;8.824;2024-03-17T12:06:31;10.40;;;5.68;;
74612;SDS011;63119;51.788;8.824;2024-03-17T12:11:48;10.93;;;5.50;;
74612;SDS011;63119;51.788;8.824;2024-03-17T12:14:15;11.32;;;5.78;;
74612;SDS011;63119;51.788;8.824;2024-03-17T12:16:49;11.45;;;5.93;;
74612;SDS011;63119;51.788;8.824;2024-03-17T12:19:15;9.73;;;5.35;;
74612;SDS011;63119;51.788;8.824;2024-03-17T12:21:44;11.18;;;5.70;;
74612;SDS011;63119;51.788;8.824;2024-03-17T12:24:14;8.65;;;4.93;;
74612;SDS011;63119;51.788;8.824;2024-03-17T12:26:42;9.05;;;4.88;;
74612;SDS011;63119;51.788;8.824;2024-03-17T12:31:53;9.45;;;5.30;;
74612;SDS011;63119;51.788;8.824;2024-03-17T12:34:20;8.88;;;4.40;;
74612;SDS011;63119;51.788;8.824;2024-03-17T12:36:46;10.07;;;5.32;;
74612;SDS011;63119;51.788;8.824;2024-03-17T12:41:45;9.52;;;4.90;;
74612;SDS011;63119;51.788;8.824;2024-03-17T12:44:49;7.03;;;4.72;;
74612;SDS011;63119;51.788;8.824;2024-03-17T12:47:17;9.23;;;4.88;;
74612;SDS011;63119;51.788;8.824;2024-03-17T12:49:44;8.27;;;4.75;;
74612;SDS011;63119;51.788;8.824;2024-03-17T12:54:45;7.43;;;4.47;;
74612;SDS011;63119;51.788;8.824;2024-03-17T12:57:40;8.13;;;4.65;;
74612;SDS011;63119;51.788;8.824;2024-03-17T13:00:24;8.57;;;5.00;;
74612;SDS011;63119;51.788;8.824;2024-03-17T13:03:03;9.38;;;5.05;;
74612;SDS011;63119;51.788;8.824;2024-03-17T13:05:30;10.63;;;4.82;;
74612;SDS011;63119;51.788;8.824;2024-03-17T13:07:59;8.30;;;4.57;;
74612;SDS011;63119;51.788;8.824;2024-03-17T13:10:26;9.45;;;5.00;;
74612;SDS011;63119;51.788;8.824;2024-03-17T13:13:01;7.43;;;4.85;;
74612;SDS011;63119;51.788;8.824;2024-03-17T13:15:32;10.50;;;5.05;;
74612;SDS011;63119;51.788;8.824;2024-03-17T13:20:26;6.50;;;4.27;;
74612;SDS011;63119;51.788;8.824;2024-03-17T13:22:52;7.25;;;4.07;;
74612;SDS011;63119;51.788;8.824;2024-03-17T13:25:18;10.88;;;4.75;;
74612;SDS011;63119;51.788;8.824;2024-03-17T13:27:46;8.40;;;4.30;;
74612;SDS011;63119;51.788;8.824;2024-03-17T13:30:13;9.18;;;4.70;;
74612;SDS011;63119;51.788;8.824;2024-03-17T13:32:42;8.20;;;4.80;;
74612;SDS011;63119;51.788;8.824;2024-03-17T13:35:15;6.68;;;4.03;;
74612;SDS011;63119;51.788;8.824;2024-03-17T13:37:42;8.70;;;4.88;;
74612;SDS011;63119;51.788;8.824;2024-03-17T13:40:09;8.73;;;5.25;;
74612;SDS011;63119;51.788;8.824;2024-03-17T13:42:37;8.18;;;4.40;;
74612;SDS011;63119;51.788;8.824;2024-03-17T13:45:02;7.13;;;4.32;;
74612;SDS011;63119;51.788;8.824;2024-03-17T13:47:28;9.23;;;4.75;;
74612;SDS011;63119;51.788;8.824;2024-03-17T13:49:53;10.00;;;5.07;;
74612;SDS011;63119;51.788;8.824;2024-03-17T13:52:19;7.73;;;4.30;;
74612;SDS011;63119;51.788;8.824;2024-03-17T13:54:44;7.65;;;4.40;;
74612;SDS011;63119;51.788;8.824;2024-03-17T13:57:10;8.57;;;4.32;;
74612;SDS011;63119;51.788;8.824;2024-03-17T13:59:35;7.57;;;4.73;;
74612;SDS011;63119;51.788;8.824;2024-03-17T14:02:01;8.13;;;4.72;;
74612;SDS011;63119;51.788;8.824;2024-03-17T14:04:27;9.13;;;4.57;;
74612;SDS011;63119;51.788;8.824;2024-03-17T14:06:52;7.60;;;4.35;;
74612;SDS011;63119;51.788;8.824;2024-03-17T14:09:18;9.95;;;5.18;;
74612;SDS011;63119;51.788;8.824;2024-03-17T14:11:43;8.83;;;5.03;;
74612;SDS011;63119;51.788;8.824;2024-03-17T14:14:10;6.88;;;4.53;;
74612;SDS011;63119;51.788;8.824;2024-03-17T14:16:36;9.05;;;5.30;;
74612;SDS011;63119;51.788;8.824;2024-03-17T14:19:01;8.37;;;5.27;;
74612;SDS011;63119;51.788;8.824;2024-03-17T14:21:27;7.97;;;4.97;;
74612;SDS011;63119;51.788;8.824;2024-03-17T14:23:53;7.20;;;4.07;;
74612;SDS011;63119;51.788;8.824;2024-03-17T14:26:19;7.93;;;4.25;;
74612;SDS011;63119;51.788;8.824;2024-03-17T14:28:44;7.20;;;4.00;;
74612;SDS011;63119;51.788;8.824;2024-03-17T14:31:10;9.63;;;4.90;;
74612;SDS011;63119;51.788;8.824;2024-03-17T14:33:35;8.60;;;4.93;;
74612;SDS011;63119;51.788;8.824;2024-03-17T14:36:00;10.97;;;5.20;;
74612;SDS011;63119;51.788;8.824;2024-03-17T14:38:26;9.40;;;4.40;;
74612;SDS011;63119;51.788;8.824;2024-03-17T14:40:51;7.13;;;4.83;;
74612;SDS011;63119;51.788;8.824;2024-03-17T14:43:17;9.30;;;4.25;;
74612;SDS011;63119;51.788;8.824;2024-03-17T14:45:42;8.17;;;5.00;;
74612;SDS011;63119;51.788;8.824;2024-03-17T14:48:07;7.03;;;4.37;;
74612;SDS011;63119;51.788;8.824;2024-03-17T14:50:34;8.95;;;4.40;;
74612;SDS011;63119;51.788;8.824;2024-03-17T14:52:59;8.30;;;4.43;;
74612;SDS011;63119;51.788;8.824;2024-03-17T14:55:25;10.50;;;5.03;;
74612;SDS011;63119;51.788;8.824;2024-03-17T14:57:50;6.73;;;4.13;;
74612;SDS011;63119;51.788;8.824;2024-03-17T15:00:15;6.77;;;3.63;;
74612;SDS011;63119;51.788;8.824;2024-03-17T15:02:41;7.97;;;4.47;;
74612;SDS011;63119;51.788;8.824;2024-03-17T15:05:13;8.73;;;4.70;;
74612;SDS011;63119;51.788;8.824;2024-03-17T15:07:45;7.28;;;4.03;;
74612;SDS011;63119;51.788;8.824;2024-03-17T15:10:10;8.43;;;4.90;;
74612;SDS011;63119;51.788;8.824;2024-03-17T15:12:37;8.68;;;4.30;;
74612;SDS011;63119;51.788;8.824;2024-03-17T15:15:02;7.50;;;3.77;;
74612;SDS011;63119;51.788;8.824;2024-03-17T15:17:28;9.00;;;4.38;;
74612;SDS011;63119;51.788;8.824;2024-03-17T15:19:53;6.13;;;4.10;;
74612;SDS011;63119;51.788;8.824;2024-03-17T15:22:18;7.55;;;4.53;;
74612;SDS011;63119;51.788;8.824;2024-03-17T15:24:46;9.93;;;5.55;;
74612;SDS011;63119;51.788;8.824;2024-03-17T15:27:11;8.05;;;5.18;;
74612;SDS011;63119;51.788;8.824;2024-03-17T15:29:39;11.20;;;5.80;;